TZ-0048 weather

Mtemere Airport
Mtemere, Pwani Region, Tanzania

Public forecast

Using degrees Celsius for public forecast. Weather courtesy of forecast.io.

METAR (pilot weather report)

Closest report is Morogoro Airport, 66.1 nm (122.4 km) NNW. Retrieved 2019/02/16 08:00 UTC (58 minutes ago):

HTMG 160800Z 00000KT 9999 FEW026 30/20 Q1017

TAF (pilot weather forecast)

Closest forecast is Julius Nyerere International Airport, 79.0 nm (146.4 km) NE. Retrieved 2019/02/16 06:00 UTC (3 hours ago):

TAF HTDA 160500Z 1606/1712 01010KT 9999 BKN024 BECMG 1610/1613 SCT028